Time;durP1;ratioP1;P1;durP2;ratioP2;P2;SDS_P1;SDS_P2;PMS_P1;PMS_P2;Temp;Humidity;BMP_temperature;BMP_pressure;BME280_temperature;BME280_humidity;BME280_pressure;Samples;Min_cycle;Max_cycle;Signal;HPM_P1;HPM_P2
2022/03/25 00:02:38;;;;;;;;;;;;;;;;;;4221870;28;2303;-59
2022/03/25 00:04:59;;;;;;;;;;;;;;;;;;4221419;28;974;-58
2022/03/25 00:07:20;;;;;;;;;;;;;;;;;;4221542;28;1001;-58
2022/03/25 00:09:41;;;;;;;;;;;;;;;;;;4220308;28;958;-58
2022/03/25 00:12:03;;;;;;;;;;;;;;;;;;4220976;28;1914;-58
2022/03/25 00:14:24;;;;;;;;;;;;;;;;;;4221435;28;1134;-58
2022/03/25 00:16:45;;;;;;;;;;;;;;;;;;4220922;28;974;-59
2022/03/25 00:19:05;;;;;;;;;;;;;;;;;;4221024;28;964;-58
2022/03/25 00:21:26;;;;;;;;;;;;;;;;;;4220957;28;1117;-58
2022/03/25 00:23:46;;;;;;;;;;;;;;;;;;4221129;28;950;-58
2022/03/25 00:26:07;;;;;;;;;;;;;;;;;;4221068;28;954;-58
2022/03/25 00:28:28;;;;;;;;;;;;;;;;;;4221169;28;1069;-59
2022/03/25 00:30:49;;;;;;;;;;;;;;;;;;4221040;28;934;-58
2022/03/25 00:33:10;;;;;;;;;;;;;;;;;;4220610;28;1910;-58
2022/03/25 00:35:32;;;;;;;;;;;;;;;;;;4219954;28;900;-59
2022/03/25 00:37:52;;;;;;;;;;;;;;;;;;4219743;28;998;-58
2022/03/25 00:40:13;;;;;;;;;;;;;;;;;;4220044;28;960;-59
2022/03/25 00:42:34;;;;;;;;;;;;;;;;;;4220623;28;996;-59
2022/03/25 00:44:55;;;;;;;;;;;;;;;;;;4220874;28;1088;-58
2022/03/25 00:47:16;;;;;;;;;;;;;;;;;;4219562;28;1064;-58
2022/03/25 00:49:37;;;;;;;;;;;;;;;;;;4221076;28;977;-59
2022/03/25 00:51:59;;;;;;;;;;;;;;;;;;4220888;28;1012;-58
2022/03/25 00:54:20;;;;;;;;;;;;;;;;;;4219735;28;958;-61
2022/03/25 00:56:41;;;;;;;;;;;;;;;;;;4219953;28;850;-61
2022/03/25 00:59:01;;;;;;;;;;;;;;;;;;4220910;28;979;-61
2022/03/25 01:01:22;;;;;;;;;;;;;;;;;;4220716;28;1089;-61
2022/03/25 01:03:43;;;;;;;;;;;;;;;;;;4219798;28;1193;-61
2022/03/25 01:06:04;;;;;;;;;;;;;;;;;;4219548;28;933;-61
2022/03/25 01:08:27;;;;;;;;;;;;;;;;;;4219654;28;1032;-58
2022/03/25 01:10:47;;;;;;;;;;;;;;;;;;4220176;28;1855;-58
2022/03/25 01:13:08;;;;;;;;;;;;;;;;;;4220239;28;1902;-59
2022/03/25 01:15:29;;;;;;;;;;;;;;;;;;4220214;28;1088;-58
2022/03/25 01:17:49;;;;;;;;;;;;;;;;;;4218065;28;857;-58
2022/03/25 01:20:10;;;;;;;;;;;;;;;;;;4218519;28;981;-59
2022/03/25 01:22:31;;;;;;;;;;;;;;;;;;4217815;28;1022;-58
2022/03/25 01:24:51;;;;;;;;;;;;;;;;;;4218825;28;1027;-58
2022/03/25 01:27:12;;;;;;;;;;;;;;;;;;4220644;28;812;-58
2022/03/25 01:29:32;;;;;;;;;;;;;;;;;;4219196;28;979;-58
2022/03/25 01:31:53;;;;;;;;;;;;;;;;;;4219499;28;1212;-58
2022/03/25 01:34:15;;;;;;;;;;;;;;;;;;4220640;28;1968;-58
2022/03/25 01:36:35;;;;;;;;;;;;;;;;;;4219545;28;950;-58
2022/03/25 01:38:56;;;;;;;;;;;;;;;;;;4219964;28;1054;-58
2022/03/25 01:41:18;;;;;;;;;;;;;;;;;;4219128;28;997;-58
2022/03/25 01:43:39;;;;;;;;;;;;;;;;;;4217775;28;1011;-58
2022/03/25 01:46:00;;;;;;;;;;;;;;;;;;4218541;28;1180;-58
2022/03/25 01:48:20;;;;;;;;;;;;;;;;;;4219814;28;941;-58
2022/03/25 01:50:41;;;;;;;;;;;;;;;;;;4218958;28;965;-61
2022/03/25 01:53:03;;;;;;;;;;;;;;;;;;4220242;28;1905;-58
2022/03/25 01:55:26;;;;;;;;;;;;;;;;;;4220387;28;986;-58
2022/03/25 01:57:46;;;;;;;;;;;;;;;;;;4219718;28;906;-58
2022/03/25 02:03:54;;;;;;;;;;;;;;;;;;4203042;28;1012;-58
2022/03/25 02:06:16;;;;;;;;;;;;;;;;;;4203873;28;1159;-59
2022/03/25 02:08:36;;;;;;;;;;;;;;;;;;4217599;28;949;-59
2022/03/25 02:10:57;;;;;;;;;;;;;;;;;;4218321;28;1289;-58
2022/03/25 02:13:17;;;;;;;;;;;;;;;;;;4218083;28;1910;-59
2022/03/25 02:15:42;;;;;;;;;;;;;;;;;;4217890;28;1255;-58
2022/03/25 02:18:06;;;;;;;;;;;;;;;;;;4217952;28;1092;-58
2022/03/25 02:20:27;;;;;;;;;;;;;;;;;;4217569;28;1116;-58
2022/03/25 02:22:48;;;;;;;;;;;;;;;;;;4218373;28;1040;-58
2022/03/25 02:25:09;;;;;;;;;;;;;;;;;;4218528;28;1160;-58
2022/03/25 02:27:31;;;;;;;;;;;;;;;;;;4218440;28;993;-59
2022/03/25 02:29:51;;;;;;;;;;;;;;;;;;4218315;28;1259;-58
2022/03/25 02:32:14;;;;;;;;;;;;;;;;;;4219412;28;967;-58
2022/03/25 02:34:34;;;;;;;;;;;;;;;;;;4221988;28;1913;-59
2022/03/25 02:36:55;;;;;;;;;;;;;;;;;;4222000;28;1260;-59
2022/03/25 02:39:16;;;;;;;;;;;;;;;;;;4222058;28;1058;-58
2022/03/25 02:41:38;;;;;;;;;;;;;;;;;;4221042;28;1226;-60
2022/03/25 02:44:00;;;;;;;;;;;;;;;;;;4220851;28;1052;-58
2022/03/25 02:46:21;;;;;;;;;;;;;;;;;;4221592;28;1187;-58
2022/03/25 02:48:41;;;;;;;;;;;;;;;;;;4221398;28;1283;-59
2022/03/25 02:51:02;;;;;;;;;;;;;;;;;;4222511;28;890;-58
2022/03/25 02:53:23;;;;;;;;;;;;;;;;;;4222189;28;1910;-58
2022/03/25 02:55:43;;;;;;;;;;;;;;;;;;4222346;28;1004;-58
2022/03/25 02:58:04;;;;;;;;;;;;;;;;;;4222252;28;1215;-58
2022/03/25 03:00:26;;;;;;;;;;;;;;;;;;4222145;28;1044;-58
2022/03/25 03:02:46;;;;;;;;;;;;;;;;;;4222321;28;1183;-58
2022/03/25 03:05:07;;;;;;;;;;;;;;;;;;4221965;28;966;-58
2022/03/25 03:07:28;;;;;;;;;;;;;;;;;;4222120;28;969;-59
2022/03/25 03:09:48;;;;;;;;;;;;;;;;;;4222405;28;815;-58
2022/03/25 03:12:10;;;;;;;;;;;;;;;;;;4221992;28;1072;-58
2022/03/25 03:14:31;;;;;;;;;;;;;;;;;;4221884;28;1905;-58
2022/03/25 03:16:51;;;;;;;;;;;;;;;;;;4222034;28;1212;-59
2022/03/25 03:19:13;;;;;;;;;;;;;;;;;;4222294;28;852;-58
2022/03/25 03:21:34;;;;;;;;;;;;;;;;;;4221597;28;1109;-58
2022/03/25 03:23:54;;;;;;;;;;;;;;;;;;4221731;28;1087;-59
2022/03/25 03:26:15;;;;;;;;;;;;;;;;;;4220427;28;1092;-59
2022/03/25 03:28:35;;;;;;;;;;;;;;;;;;4221503;28;1224;-58
2022/03/25 03:30:57;;;;;;;;;;;;;;;;;;4221614;28;1180;-59
2022/03/25 03:33:17;;;;;;;;;;;;;;;;;;4221650;28;1988;-58
2022/03/25 03:35:38;;;;;;;;;;;;;;;;;;4221362;28;1012;-58
2022/03/25 03:37:58;;;;;;;;;;;;;;;;;;4221835;28;1059;-59
2022/03/25 03:40:19;;;;;;;;;;;;;;;;;;4221944;28;929;-58
2022/03/25 03:42:39;;;;;;;;;;;;;;;;;;4221174;28;948;-58
2022/03/25 03:45:00;;;;;;;;;;;;;;;;;;4221575;28;1230;-59
2022/03/25 03:47:21;;;;;;;;;;;;;;;;;;4221814;28;1180;-58
2022/03/25 03:49:41;;;;;;;;;;;;;;;;;;4221369;28;962;-58
2022/03/25 03:52:02;;;;;;;;;;;;;;;;;;4221630;28;1248;-58
2022/03/25 03:54:23;;;;;;;;;;;;;;;;;;4221608;28;1914;-58
2022/03/25 03:57:02;;;;;;;;;;;;;;;;;;4221779;28;1350;-58
2022/03/25 03:59:22;;;;;;;;;;;;;;;;;;4221460;28;1167;-58
2022/03/25 04:01:43;;;;;;;;;;;;;;;;;;4221702;28;860;-59
2022/03/25 04:04:04;;;;;;;;;;;;;;;;;;4221255;28;942;-58
2022/03/25 04:06:25;;;;;;;;;;;;;;;;;;4221155;28;941;-60
2022/03/25 04:08:45;;;;;;;;;;;;;;;;;;4221443;28;989;-58
2022/03/25 04:11:07;;;;;;;;;;;;;;;;;;4221110;28;1459;-58
2022/03/25 04:13:27;;;;;;;;;;;;;;;;;;4221129;28;1906;-58
2022/03/25 04:15:48;;;;;;;;;;;;;;;;;;4221402;28;952;-58
2022/03/25 04:18:08;;;;;;;;;;;;;;;;;;4221187;28;947;-59
2022/03/25 04:20:29;;;;;;;;;;;;;;;;;;4221236;28;1016;-58
2022/03/25 04:22:50;;;;;;;;;;;;;;;;;;4221238;28;942;-58
2022/03/25 04:25:10;;;;;;;;;;;;;;;;;;4221147;28;1052;-58
2022/03/25 04:27:31;;;;;;;;;;;;;;;;;;4221203;28;1141;-58
2022/03/25 04:29:51;;;;;;;;;;;;;;;;;;4221096;28;899;-59
2022/03/25 04:32:12;;;;;;;;;;;;;;;;;;4220249;28;1212;-58
2022/03/25 04:34:33;;;;;;;;;;;;;;;;;;4221102;28;1922;-58
2022/03/25 04:36:53;;;;;;;;;;;;;;;;;;4221007;28;1001;-58
2022/03/25 04:39:14;;;;;;;;;;;;;;;;;;4220865;28;1198;-58
2022/03/25 04:41:35;;;;;;;;;;;;;;;;;;4219961;28;1039;-58
2022/03/25 04:43:55;;;;;;;;;;;;;;;;;;4220985;28;857;-58
2022/03/25 04:46:16;;;;;;;;;;;;;;;;;;4219718;28;1008;-59
2022/03/25 04:48:37;;;;;;;;;;;;;;;;;;4220465;28;1010;-58
2022/03/25 04:50:57;;;;;;;;;;;;;;;;;;4220791;28;1130;-59
2022/03/25 04:53:18;;;;;;;;;;;;;;;;;;4220772;28;990;-58
2022/03/25 04:55:39;;;;;;;;;;;;;;;;;;4219946;28;921;-58
2022/03/25 04:58:00;;;;;;;;;;;;;;;;;;4220832;28;956;-58
2022/03/25 05:00:21;;;;;;;;;;;;;;;;;;4220866;28;1169;-58
2022/03/25 05:02:41;;;;;;;;;;;;;;;;;;4220353;28;1032;-59
2022/03/25 05:05:02;;;;;;;;;;;;;;;;;;4220717;28;963;-58
2022/03/25 05:07:23;;;;;;;;;;;;;;;;;;4220628;28;961;-58
2022/03/25 05:09:43;;;;;;;;;;;;;;;;;;4220694;28;1130;-59
2022/03/25 05:12:04;;;;;;;;;;;;;;;;;;4220468;28;1283;-58
2022/03/25 05:14:25;;;;;;;;;;;;;;;;;;4220658;28;1906;-58
2022/03/25 05:16:52;;;;;;;;;;;;;;;;;;4220485;28;802;-58
2022/03/25 05:19:13;;;;;;;;;;;;;;;;;;4220247;28;962;-58
2022/03/25 05:21:34;;;;;;;;;;;;;;;;;;4220647;28;1004;-58
2022/03/25 05:23:54;;;;;;;;;;;;;;;;;;4220484;28;1105;-58
2022/03/25 05:26:16;;;;;;;;;;;;;;;;;;4220536;28;890;-59
2022/03/25 05:28:37;;;;;;;;;;;;;;;;;;4220392;28;1048;-58
2022/03/25 05:30:57;;;;;;;;;;;;;;;;;;4220120;28;1084;-58
2022/03/25 05:33:18;;;;;;;;;;;;;;;;;;4218374;28;1576;-59
2022/03/25 05:35:38;;;;;;;;;;;;;;;;;;4218832;28;1972;-58
2022/03/25 05:37:59;;;;;;;;;;;;;;;;;;4220115;28;1622;-58
2022/03/25 05:40:20;;;;;;;;;;;;;;;;;;4220093;28;1805;-58
2022/03/25 05:42:40;;;;;;;;;;;;;;;;;;4219991;28;1402;-58
2022/03/25 05:45:01;;;;;;;;;;;;;;;;;;4219973;28;931;-58
2022/03/25 05:47:22;;;;;;;;;;;;;;;;;;4220510;28;960;-58
2022/03/25 05:49:43;;;;;;;;;;;;;;;;;;4220022;28;903;-58
2022/03/25 05:52:04;;;;;;;;;;;;;;;;;;4220293;28;812;-58
2022/03/25 05:54:24;;;;;;;;;;;;;;;;;;4220128;28;1909;-58
2022/03/25 05:56:45;;;;;;;;;;;;;;;;;;4220075;28;1560;-58
2022/03/25 05:59:06;;;;;;;;;;;;;;;;;;4219904;28;1228;-58
2022/03/25 06:01:26;;;;;;;;;;;;;;;;;;4219608;28;1503;-58
2022/03/25 06:03:47;;;;;;;;;;;;;;;;;;4220144;28;950;-59
2022/03/25 06:06:07;;;;;;;;;;;;;;;;;;4219701;28;970;-58
2022/03/25 06:08:28;;;;;;;;;;;;;;;;;;4222728;28;1127;-58
2022/03/25 06:10:49;;;;;;;;;;;;;;;;;;4223270;28;837;-58
2022/03/25 06:13:10;;;;;;;;;;;;;;;;;;4222859;28;958;-58
2022/03/25 06:15:31;;;;;;;;;;;;;;;;;;4222518;28;1971;-58
2022/03/25 06:17:51;;;;;;;;;;;;;;;;;;4222842;28;939;-59
2022/03/25 06:20:13;;;;;;;;;;;;;;;;;;4222335;28;1559;-58
2022/03/25 06:22:34;;;;;;;;;;;;;;;;;;4222817;28;1045;-58
2022/03/25 06:24:55;;;;;;;;;;;;;;;;;;4222016;28;1190;-58
2022/03/25 06:27:15;;;;;;;;;;;;;;;;;;4222643;28;1644;-58
2022/03/25 06:29:37;;;;;;;;;;;;;;;;;;4222495;28;1117;-58
2022/03/25 06:31:57;;;;;;;;;;;;;;;;;;4222123;28;2081;-59
2022/03/25 06:34:20;;;;;;;;;;;;;;;;;;4221993;28;1957;-58
2022/03/25 06:36:41;;;;;;;;;;;;;;;;;;4205562;28;1018;-58
2022/03/25 06:39:02;;;;;;;;;;;;;;;;;;4205868;28;1114;-59
2022/03/25 06:41:22;;;;;;;;;;;;;;;;;;4205734;28;1168;-58
2022/03/25 06:43:43;;;;;;;;;;;;;;;;;;4205372;28;1154;-58
2022/03/25 06:46:04;;;;;;;;;;;;;;;;;;4206016;28;1028;-58
2022/03/25 06:48:24;;;;;;;;;;;;;;;;;;4206017;28;933;-58
2022/03/25 06:50:45;;;;;;;;;;;;;;;;;;4205719;28;998;-59
2022/03/25 06:53:07;;;;;;;;;;;;;;;;;;4212340;28;1055;-58
2022/03/25 06:55:28;;;;;;;;;;;;;;;;;;4222462;28;1986;-58
2022/03/25 06:57:49;;;;;;;;;;;;;;;;;;4222315;28;1307;-58
2022/03/25 07:00:11;;;;;;;;;;;;;;;;;;4222088;28;1837;-58
2022/03/25 07:02:32;;;;;;;;;;;;;;;;;;4215027;28;2504;-58
2022/03/25 07:04:53;;;;;;;;;;;;;;;;;;4222090;28;1463;-59
2022/03/25 07:07:13;;;;;;;;;;;;;;;;;;4222476;28;978;-58
2022/03/25 07:09:35;;;;;;;;;;;;;;;;;;4205644;28;1725;-58
2022/03/25 07:11:56;;;;;;;;;;;;;;;;;;4220537;28;1177;-58
2022/03/25 07:14:17;;;;;;;;;;;;;;;;;;4222048;28;862;-58
2022/03/25 07:16:42;;;;;;;;;;;;;;;;;;4221613;28;1341;-58
2022/03/25 07:19:02;;;;;;;;;;;;;;;;;;4221323;28;1090;-58
2022/03/25 07:21:24;;;;;;;;;;;;;;;;;;4222049;28;1210;-58
2022/03/25 07:23:45;;;;;;;;;;;;;;;;;;4222103;28;947;-58
2022/03/25 07:26:05;;;;;;;;;;;;;;;;;;4222125;28;934;-58
2022/03/25 07:28:26;;;;;;;;;;;;;;;;;;4220460;28;2012;-58
2022/03/25 07:30:47;;;;;;;;;;;;;;;;;;4221577;28;959;-58
2022/03/25 07:33:07;;;;;;;;;;;;;;;;;;4221809;28;946;-58
2022/03/25 07:35:28;;;;;;;;;;;;;;;;;;4221553;28;1910;-58
2022/03/25 07:37:49;;;;;;;;;;;;;;;;;;4221525;28;1307;-59
2022/03/25 07:40:10;;;;;;;;;;;;;;;;;;4221776;28;913;-58
2022/03/25 07:42:30;;;;;;;;;;;;;;;;;;4221332;28;1110;-58
2022/03/25 07:44:51;;;;;;;;;;;;;;;;;;4220987;28;1178;-58
2022/03/25 07:47:13;;;;;;;;;;;;;;;;;;4224026;28;1143;-58
2022/03/25 07:49:35;;;;;;;;;;;;;;;;;;4221273;28;1107;-57
2022/03/25 07:51:56;;;;;;;;;;;;;;;;;;4221719;28;1049;-56
2022/03/25 07:54:17;;;;;;;;;;;;;;;;;;4221582;28;1077;-57
2022/03/25 07:56:38;;;;;;;;;;;;;;;;;;4221533;28;1909;-57
2022/03/25 07:58:59;;;;;;;;;;;;;;;;;;4221394;28;962;-56
2022/03/25 08:01:19;;;;;;;;;;;;;;;;;;4221105;28;1099;-57
2022/03/25 08:03:40;;;;;;;;;;;;;;;;;;4221286;28;1096;-57
2022/03/25 08:06:01;;;;;;;;;;;;;;;;;;4221495;28;1047;-57
2022/03/25 08:08:22;;;;;;;;;;;;;;;;;;4221857;28;941;-57
2022/03/25 08:10:42;;;;;;;;;;;;;;;;;;4221365;28;1158;-57
2022/03/25 08:13:04;;;;;;;;;;;;;;;;;;4221204;28;1098;-57
2022/03/25 08:15:24;;;;;;;;;;;;;;;;;;4221699;28;1909;-57
2022/03/25 08:17:45;;;;;;;;;;;;;;;;;;4221012;28;1070;-57
2022/03/25 08:20:06;;;;;;;;;;;;;;;;;;4221147;28;1396;-57
2022/03/25 08:22:26;;;;;;;;;;;;;;;;;;4221373;28;943;-57
2022/03/25 08:30:05;;;;;;;;;;;;;;;;;;4219439;28;996;-57
2022/03/25 08:32:27;;;;;;;;;;;;;;;;;;4220502;28;1209;-57
2022/03/25 08:34:49;;;;;;;;;;;;;;;;;;4219181;28;1149;-57
2022/03/25 08:37:12;;;;;;;;;;;;;;;;;;4219879;28;1290;-57
2022/03/25 08:39:36;;;;;;;;;;;;;;;;;;4219419;28;1349;-60
2022/03/25 08:41:59;;;;;;;;;;;;;;;;;;4220422;28;998;-60
2022/03/25 08:44:20;;;;;;;;;;;;;;;;;;4221124;28;1004;-59
2022/03/25 08:46:42;;;;;;;;;;;;;;;;;;4220558;28;1501;-59
2022/03/25 08:49:03;;;;;;;;;;;;;;;;;;4203309;28;1267;-57
2022/03/25 08:51:28;;;;;;;;;;;;;;;;;;4203619;28;1234;-57
2022/03/25 08:53:49;;;;;;;;;;;;;;;;;;4204124;28;984;-57
2022/03/25 08:56:11;;;;;;;;;;;;;;;;;;4220090;28;1901;-58
2022/03/25 08:58:32;;;;;;;;;;;;;;;;;;4220856;28;1207;-57
2022/03/25 09:00:53;;;;;;;;;;;;;;;;;;4220589;28;1126;-57
2022/03/25 09:03:14;;;;;;;;;;;;;;;;;;4203880;28;1043;-58
2022/03/25 09:05:35;;;;;;;;;;;;;;;;;;4203705;28;1034;-57
2022/03/25 09:07:56;;;;;;;;;;;;;;;;;;4204005;28;1165;-57
2022/03/25 09:10:16;;;;;;;;;;;;;;;;;;4203729;28;988;-57
2022/03/25 09:12:37;;;;;;;;;;;;;;;;;;4203554;28;1055;-57
2022/03/25 09:14:58;;;;;;;;;;;;;;;;;;4213492;28;1470;-57
2022/03/25 09:17:19;;;;;;;;;;;;;;;;;;4218691;28;1372;-57
2022/03/25 09:19:40;;;;;;;;;;;;;;;;;;4219123;28;826;-57
2022/03/25 09:22:01;;;;;;;;;;;;;;;;;;4218943;28;980;-58
2022/03/25 09:24:22;;;;;;;;;;;;;;;;;;4218679;28;1007;-57
2022/03/25 09:26:42;;;;;;;;;;;;;;;;;;4219821;28;976;-57
2022/03/25 09:29:03;;;;;;;;;;;;;;;;;;4220330;28;881;-57
2022/03/25 09:31:24;;;;;;;;;;;;;;;;;;4220073;28;939;-57
2022/03/25 09:33:44;;;;;;;;;;;;;;;;;;4220135;28;977;-56
2022/03/25 09:36:05;;;;;;;;;;;;;;;;;;4219621;28;1905;-56
2022/03/25 09:38:26;;;;;;;;;;;;;;;;;;4218782;28;984;-56
2022/03/25 09:40:46;;;;;;;;;;;;;;;;;;4218688;28;1070;-56
2022/03/25 09:43:07;;;;;;;;;;;;;;;;;;4218761;28;1290;-57
2022/03/25 09:45:30;;;;;;;;;;;;;;;;;;4218280;28;999;-56
2022/03/25 09:47:53;;;;;;;;;;;;;;;;;;4219003;28;1323;-56
2022/03/25 09:50:13;;;;;;;;;;;;;;;;;;4203578;28;876;-57
2022/03/25 09:52:34;;;;;;;;;;;;;;;;;;4203479;28;1020;-56
2022/03/25 09:54:55;;;;;;;;;;;;;;;;;;4203347;28;940;-56
2022/03/25 09:57:15;;;;;;;;;;;;;;;;;;4212620;28;1910;-57
2022/03/25 09:59:36;;;;;;;;;;;;;;;;;;4215930;28;1012;-56
2022/03/25 10:01:57;;;;;;;;;;;;;;;;;;4218303;28;1282;-57
2022/03/25 10:04:18;;;;;;;;;;;;;;;;;;4218446;28;1057;-57
2022/03/25 10:06:39;;;;;;;;;;;;;;;;;;4218081;28;769;-56
2022/03/25 10:09:01;;;;;;;;;;;;;;;;;;4218209;28;996;-57
2022/03/25 10:11:22;;;;;;;;;;;;;;;;;;4218500;28;1041;-58
2022/03/25 10:13:43;;;;;;;;;;;;;;;;;;4218019;28;1253;-57
2022/03/25 10:16:14;;;;;;;;;;;;;;;;;;4217803;28;1972;-57
2022/03/25 10:18:54;;;;;;;;;;;;;;;;;;4220091;28;904;-56
2022/03/25 10:21:14;;;;;;;;;;;;;;;;;;4218096;28;997;-57
2022/03/25 10:23:35;;;;;;;;;;;;;;;;;;4219309;28;1076;-57
2022/03/25 10:25:56;;;;;;;;;;;;;;;;;;4219381;28;1032;-57
2022/03/25 10:28:16;;;;;;;;;;;;;;;;;;4219164;28;1164;-57
2022/03/25 10:30:37;;;;;;;;;;;;;;;;;;4219861;28;924;-57
2022/03/25 10:32:58;;;;;;;;;;;;;;;;;;4218721;28;1299;-57
2022/03/25 10:35:18;;;;;;;;;;;;;;;;;;4219450;28;945;-56
2022/03/25 10:37:39;;;;;;;;;;;;;;;;;;4218614;28;1914;-59
2022/03/25 10:40:00;;;;;;;;;;;;;;;;;;4219093;28;1005;-59
2022/03/25 10:42:21;;;;;;;;;;;;;;;;;;4218789;28;1109;-59
2022/03/25 10:44:43;;;;;;;;;;;;;;;;;;4217608;28;1059;-59
2022/03/25 10:47:03;;;;;;;;;;;;;;;;;;4218743;28;1208;-59
2022/03/25 10:49:24;;;;;;;;;;;;;;;;;;4218954;28;939;-59
2022/03/25 10:51:45;;;;;;;;;;;;;;;;;;4219719;28;960;-59
2022/03/25 10:54:07;;;;;;;;;;;;;;;;;;4222034;28;819;-57
2022/03/25 10:56:28;;;;;;;;;;;;;;;;;;4221884;28;1905;-57
2022/03/25 10:58:49;;;;;;;;;;;;;;;;;;4222266;28;956;-57
2022/03/25 11:01:10;;;;;;;;;;;;;;;;;;4221854;28;1317;-57
2022/03/25 11:03:30;;;;;;;;;;;;;;;;;;4221528;28;1054;-57
2022/03/25 11:05:51;;;;;;;;;;;;;;;;;;4222049;28;1289;-57
2022/03/25 11:08:12;;;;;;;;;;;;;;;;;;4221971;28;1216;-57
2022/03/25 11:10:32;;;;;;;;;;;;;;;;;;4220476;28;1473;-57
2022/03/25 11:12:53;;;;;;;;;;;;;;;;;;4222000;28;1276;-58
2022/03/25 11:15:14;;;;;;;;;;;;;;;;;;4221685;28;1214;-58
2022/03/25 11:17:36;;;;;;;;;;;;;;;;;;4221964;28;1909;-57
2022/03/25 11:19:59;;;;;;;;;;;;;;;;;;4222288;28;870;-58
2022/03/25 11:22:19;;;;;;;;;;;;;;;;;;4221917;28;1249;-57
2022/03/25 11:24:40;;;;;;;;;;;;;;;;;;4220733;28;1175;-57
2022/03/25 11:27:00;;;;;;;;;;;;;;;;;;4221836;28;1045;-58
2022/03/25 11:29:22;;;;;;;;;;;;;;;;;;4221792;28;1129;-57
2022/03/25 11:31:42;;;;;;;;;;;;;;;;;;4221174;28;1147;-57
2022/03/25 11:34:03;;;;;;;;;;;;;;;;;;4221263;28;993;-57
2022/03/25 11:36:24;;;;;;;;;;;;;;;;;;4221533;28;1886;-57
2022/03/25 11:38:44;;;;;;;;;;;;;;;;;;4221647;28;1198;-58
2022/03/25 11:41:04;;;;;;;;;;;;;;;;;;4221752;28;986;-57
2022/03/25 11:43:25;;;;;;;;;;;;;;;;;;4221910;28;1134;-58
2022/03/25 11:45:46;;;;;;;;;;;;;;;;;;4221371;28;1086;-57
2022/03/25 11:48:07;;;;;;;;;;;;;;;;;;4204921;28;1068;-57
2022/03/25 11:50:28;;;;;;;;;;;;;;;;;;4205088;28;978;-57
2022/03/25 11:52:48;;;;;;;;;;;;;;;;;;4207552;28;1195;-59
2022/03/25 11:55:09;;;;;;;;;;;;;;;;;;4221545;28;1112;-58
2022/03/25 11:57:30;;;;;;;;;;;;;;;;;;4221656;28;2000;-57
2022/03/25 11:59:50;;;;;;;;;;;;;;;;;;4220158;28;974;-57
2022/03/25 12:02:11;;;;;;;;;;;;;;;;;;4221043;28;1170;-58
2022/03/25 12:04:32;;;;;;;;;;;;;;;;;;4219589;28;1162;-57
2022/03/25 12:06:52;;;;;;;;;;;;;;;;;;4221022;28;962;-58
2022/03/25 12:09:13;;;;;;;;;;;;;;;;;;4220973;28;1008;-58
2022/03/25 12:11:33;;;;;;;;;;;;;;;;;;4221059;28;1297;-57
2022/03/25 12:13:54;;;;;;;;;;;;;;;;;;4220982;28;916;-57
2022/03/25 12:16:15;;;;;;;;;;;;;;;;;;4220763;28;1300;-57
2022/03/25 12:18:36;;;;;;;;;;;;;;;;;;4221113;28;1004;-57
2022/03/25 12:20:57;;;;;;;;;;;;;;;;;;4220797;28;970;-58
2022/03/25 12:23:17;;;;;;;;;;;;;;;;;;4221323;28;1944;-57
2022/03/25 12:25:38;;;;;;;;;;;;;;;;;;4221181;28;953;-58
2022/03/25 12:27:59;;;;;;;;;;;;;;;;;;4220871;28;1160;-57
2022/03/25 12:30:19;;;;;;;;;;;;;;;;;;4221179;28;962;-57
2022/03/25 12:32:40;;;;;;;;;;;;;;;;;;4220436;28;1315;-58
2022/03/25 12:35:01;;;;;;;;;;;;;;;;;;4221481;28;861;-57
2022/03/25 12:37:21;;;;;;;;;;;;;;;;;;4220939;28;1980;-58
2022/03/25 12:39:42;;;;;;;;;;;;;;;;;;4220978;28;1197;-57
2022/03/25 12:42:03;;;;;;;;;;;;;;;;;;4220694;28;948;-57
2022/03/25 12:44:23;;;;;;;;;;;;;;;;;;4220542;28;1138;-57
2022/03/25 12:46:45;;;;;;;;;;;;;;;;;;4219317;28;2417;-57
2022/03/25 12:49:05;;;;;;;;;;;;;;;;;;4220618;28;1200;-57
2022/03/25 12:51:26;;;;;;;;;;;;;;;;;;4220790;28;986;-57
2022/03/25 12:53:48;;;;;;;;;;;;;;;;;;4220779;28;812;-57
2022/03/25 12:56:08;;;;;;;;;;;;;;;;;;4220226;28;1428;-57
2022/03/25 12:58:29;;;;;;;;;;;;;;;;;;4220881;28;1955;-57
2022/03/25 13:00:50;;;;;;;;;;;;;;;;;;4219824;28;869;-58
2022/03/25 13:03:11;;;;;;;;;;;;;;;;;;4204193;28;990;-58
2022/03/25 13:05:32;;;;;;;;;;;;;;;;;;4203880;28;966;-57
2022/03/25 13:07:54;;;;;;;;;;;;;;;;;;4202910;28;1087;-58
2022/03/25 13:10:15;;;;;;;;;;;;;;;;;;4203723;28;1208;-57
2022/03/25 13:12:35;;;;;;;;;;;;;;;;;;4206367;28;1312;-57
2022/03/25 13:14:56;;;;;;;;;;;;;;;;;;4220686;28;1022;-58
2022/03/25 13:17:17;;;;;;;;;;;;;;;;;;4220523;28;1906;-57
2022/03/25 13:19:38;;;;;;;;;;;;;;;;;;4221112;28;800;-57
2022/03/25 13:21:59;;;;;;;;;;;;;;;;;;4220719;28;1034;-58
2022/03/25 13:24:19;;;;;;;;;;;;;;;;;;4231481;28;1363;-57
2022/03/25 13:26:40;;;;;;;;;;;;;;;;;;4237232;27;865;-58
2022/03/25 13:29:01;;;;;;;;;;;;;;;;;;4237227;27;953;-57
2022/03/25 13:31:22;;;;;;;;;;;;;;;;;;4237276;28;996;-57
2022/03/25 13:33:42;;;;;;;;;;;;;;;;;;4236956;27;1004;-57
2022/03/25 13:36:03;;;;;;;;;;;;;;;;;;4237294;27;1151;-57
2022/03/25 13:38:24;;;;;;;;;;;;;;;;;;4237477;27;1988;-57
2022/03/25 13:40:45;;;;;;;;;;;;;;;;;;4237366;27;1262;-58
2022/03/25 13:43:08;;;;;;;;;;;;;;;;;;4237568;27;1127;-57
2022/03/25 13:45:28;;;;;;;;;;;;;;;;;;4237210;27;1155;-57
2022/03/25 13:47:49;;;;;;;;;;;;;;;;;;4236991;27;1238;-58
2022/03/25 13:50:10;;;;;;;;;;;;;;;;;;4237614;27;969;-57
2022/03/25 13:52:31;;;;;;;;;;;;;;;;;;4237532;27;1042;-57
2022/03/25 13:54:52;;;;;;;;;;;;;;;;;;4236937;27;1228;-58
2022/03/25 13:57:12;;;;;;;;;;;;;;;;;;4237268;27;1910;-58
2022/03/25 13:59:35;;;;;;;;;;;;;;;;;;4237295;28;865;-58
2022/03/25 14:01:55;;;;;;;;;;;;;;;;;;4236984;27;927;-57
2022/03/25 14:04:16;;;;;;;;;;;;;;;;;;4237134;27;965;-57
2022/03/25 14:06:39;;;;;;;;;;;;;;;;;;4237345;27;981;-57
2022/03/25 14:08:59;;;;;;;;;;;;;;;;;;4236721;27;1033;-58
2022/03/25 14:11:20;;;;;;;;;;;;;;;;;;4236946;28;1255;-57
2022/03/25 14:13:41;;;;;;;;;;;;;;;;;;4237093;27;1209;-57
2022/03/25 14:16:01;;;;;;;;;;;;;;;;;;4236895;27;988;-57
2022/03/25 14:18:22;;;;;;;;;;;;;;;;;;4202845;28;1991;-57
2022/03/25 14:20:43;;;;;;;;;;;;;;;;;;4202938;28;1152;-57
2022/03/25 14:23:05;;;;;;;;;;;;;;;;;;4203554;28;991;-57
2022/03/25 14:25:30;;;;;;;;;;;;;;;;;;4201606;28;1351;-57
2022/03/25 14:27:52;;;;;;;;;;;;;;;;;;4203830;28;878;-57
2022/03/25 14:30:12;;;;;;;;;;;;;;;;;;4205458;28;1266;-57
2022/03/25 14:32:33;;;;;;;;;;;;;;;;;;4205971;28;1022;-57
2022/03/25 14:34:53;;;;;;;;;;;;;;;;;;4205763;28;942;-57
2022/03/25 14:37:14;;;;;;;;;;;;;;;;;;4205633;28;1710;-58
2022/03/25 14:39:35;;;;;;;;;;;;;;;;;;4205708;28;1205;-57
2022/03/25 14:41:56;;;;;;;;;;;;;;;;;;4205573;28;990;-57
2022/03/25 14:44:17;;;;;;;;;;;;;;;;;;4205876;28;2020;-57
2022/03/25 14:46:38;;;;;;;;;;;;;;;;;;4210087;28;2532;-57
2022/03/25 14:48:58;;;;;;;;;;;;;;;;;;4222489;28;1432;-57
2022/03/25 14:51:19;;;;;;;;;;;;;;;;;;4222585;28;800;-58
2022/03/25 14:53:40;;;;;;;;;;;;;;;;;;4205862;28;905;-57
2022/03/25 14:56:00;;;;;;;;;;;;;;;;;;4205577;28;841;-57
2022/03/25 14:58:21;;;;;;;;;;;;;;;;;;4205321;28;1914;-59
2022/03/25 15:00:42;;;;;;;;;;;;;;;;;;4207931;28;1179;-57
2022/03/25 15:03:02;;;;;;;;;;;;;;;;;;4205878;28;1089;-58
2022/03/25 15:05:23;;;;;;;;;;;;;;;;;;4205939;28;906;-57
2022/03/25 15:07:44;;;;;;;;;;;;;;;;;;4205966;28;918;-57
2022/03/25 15:10:04;;;;;;;;;;;;;;;;;;4216562;28;1112;-57
2022/03/25 15:12:25;;;;;;;;;;;;;;;;;;4222078;28;1100;-57
2022/03/25 15:14:46;;;;;;;;;;;;;;;;;;4222689;28;1006;-57
2022/03/25 15:17:08;;;;;;;;;;;;;;;;;;4222524;28;933;-57
2022/03/25 15:19:29;;;;;;;;;;;;;;;;;;4222340;28;1982;-57
2022/03/25 15:21:49;;;;;;;;;;;;;;;;;;4222377;28;933;-58
2022/03/25 15:24:10;;;;;;;;;;;;;;;;;;4222463;28;1182;-57
2022/03/25 15:26:32;;;;;;;;;;;;;;;;;;4222159;28;964;-57
2022/03/25 15:28:53;;;;;;;;;;;;;;;;;;4222365;28;965;-58
2022/03/25 15:36:29;;;;;;;;;;;;;;;;;;4222131;28;1106;-57
2022/03/25 15:38:50;;;;;;;;;;;;;;;;;;4221782;28;1882;-57
2022/03/25 15:41:11;;;;;;;;;;;;;;;;;;4221961;28;963;-57
2022/03/25 15:43:31;;;;;;;;;;;;;;;;;;4222325;28;982;-57
2022/03/25 15:45:52;;;;;;;;;;;;;;;;;;4222307;28;982;-57
2022/03/25 15:48:12;;;;;;;;;;;;;;;;;;4222080;28;1047;-57
2022/03/25 15:50:35;;;;;;;;;;;;;;;;;;4222215;28;958;-57
2022/03/25 15:52:56;;;;;;;;;;;;;;;;;;4221955;28;867;-57
2022/03/25 15:55:16;;;;;;;;;;;;;;;;;;4221765;28;975;-57
2022/03/25 15:57:51;;;;;;;;;;;;;;;;;;4222274;28;1122;-57
2022/03/25 16:00:12;;;;;;;;;;;;;;;;;;4221931;28;1032;-57
2022/03/25 16:02:35;;;;;;;;;;;;;;;;;;4222140;28;867;-57
2022/03/25 16:04:56;;;;;;;;;;;;;;;;;;4221652;28;1132;-57
2022/03/25 16:07:16;;;;;;;;;;;;;;;;;;4221666;28;1211;-57
2022/03/25 16:09:37;;;;;;;;;;;;;;;;;;4221563;28;1339;-57
2022/03/25 16:11:57;;;;;;;;;;;;;;;;;;4221516;28;1321;-57
2022/03/25 16:14:19;;;;;;;;;;;;;;;;;;4222035;28;973;-57
2022/03/25 16:16:40;;;;;;;;;;;;;;;;;;4217783;28;1151;-58
2022/03/25 16:19:00;;;;;;;;;;;;;;;;;;4219606;28;1917;-57
2022/03/25 16:21:21;;;;;;;;;;;;;;;;;;4219437;28;996;-57
2022/03/25 16:23:42;;;;;;;;;;;;;;;;;;4220239;28;1081;-57
2022/03/25 16:26:03;;;;;;;;;;;;;;;;;;4221694;28;844;-57
2022/03/25 16:28:23;;;;;;;;;;;;;;;;;;4221348;28;1142;-58
2022/03/25 16:30:44;;;;;;;;;;;;;;;;;;4221387;28;1186;-58
2022/03/25 16:33:05;;;;;;;;;;;;;;;;;;4221336;28;1237;-57
2022/03/25 16:35:26;;;;;;;;;;;;;;;;;;4220005;28;946;-58
2022/03/25 16:37:47;;;;;;;;;;;;;;;;;;4221161;28;969;-59
2022/03/25 16:40:08;;;;;;;;;;;;;;;;;;4221597;28;1198;-58
2022/03/25 16:42:28;;;;;;;;;;;;;;;;;;4221556;28;835;-58